الصفحة الرئيسية
METAR-TAF:

METAR-TAF

مطار :

أورفة, تركيا

دائرة عرض: 37-27N, خط طول: 38-54E, ارتفاع: 823 متر

مراقبة الطقس الحالي

تاريخ ووقت الإصدار 27 دقيقة قبل الساعة 04:50UTC
ريح 6 عقدة من الشمال الشرقي
درجة الحرارة 32°درجة مئوية
الرطوبة 16%
ضغط 1013 hPa
الرؤية 10 كم أو أكثر
الغيوم لا تقل 1500 م ولا وجود لمزنة ركامية السحاب الأسود

METAR: LTCS 190450Z 05006KT CAVOK 32/03 Q1013 RMK RWY22 03006KT 340V090 SKC

زمن: 08:17 (05:17 UTC)

توقعات

تاريخ ووقت الإصدار 6ساعات و 37 دقيقة قبل الساعة 22:40UTC
التوقعات صالحة من19 الساعة 00 UTC إلى 19 الساعة 24 UTC
ريح 6 عقدة من الشمال الغربي
الرؤية 10 كم أو أكثر
الغيوم لا تقل 1500 م ولا وجود لمزنة ركامية السحاب الأسود

TAF: LTCS 182240Z 1900/1924 31006KT CAVOK

أرصاد الطقس والتوقعات من أكثر من 4000 مطار (تقارير الطقس للمطار METAR والتنبؤ بالطقس بالمطارTAF).

المحطات المتاحة هي النقط الصفراء والحمراء على الخريطة.

حرك المؤشر فوق النقطة لمعرفة اسم المحطة.

ثم انقر لمعرفة أرصاد وتوقعات الطقس.

لتغيير الخارطة: اضغط على الأزرار الخضراء مع رمز الصليب الأسود للتكبير. على الزر الأخضر مع شرطة للتصغير، أو على الأسهم الخضراء للخرائط المجاورة.


METAR-TAF: